Time;durP1;ratioP1;P1;durP2;ratioP2;P2;SDS_P1;SDS_P2;PMS_P1;PMS_P2;Temp;Humidity;BMP_temperature;BMP_pressure;BME280_temperature;BME280_humidity;BME280_pressure;Samples;Min_cycle;Max_cycle;Signal;HPM_P1;HPM_P2
2023/03/13 00:00:55;;;;;;;0.10;0.10;;;;;;;;;;4993030;28;20535;-73
2023/03/13 00:03:22;;;;;;;0.15;0.15;;;;;;;;;;4993193;28;20506;-75
2023/03/13 00:05:48;;;;;;;0.20;0.20;;;;;;;;;;4993123;28;20045;-75
2023/03/13 00:08:14;;;;;;;2.65;2.42;;;;;;;;;;5006598;28;20128;-75
2023/03/13 00:10:41;;;;;;;0.30;0.30;;;;;;;;;;5012539;28;20018;-74
2023/03/13 00:13:08;;;;;;;0.20;0.20;;;;;;;;;;5012519;28;20053;-74
2023/03/13 00:15:34;;;;;;;0.22;0.22;;;;;;;;;;5009967;28;20033;-73
2023/03/13 00:18:00;;;;;;;0.20;0.20;;;;;;;;;;5012253;28;20533;-75
2023/03/13 00:20:26;;;;;;;0.20;0.20;;;;;;;;;;5012397;28;20432;-74
2023/03/13 00:22:52;;;;;;;0.10;0.10;;;;;;;;;;5010729;28;20081;-75
2023/03/13 00:25:18;;;;;;;0.30;0.30;;;;;;;;;;5012192;28;20030;-73
2023/03/13 00:27:44;;;;;;;0.20;0.20;;;;;;;;;;5012137;28;20029;-72
2023/03/13 00:30:11;;;;;;;0.20;0.20;;;;;;;;;;5012138;28;20436;-72
2023/03/13 00:32:42;;;;;;;8.48;1.80;;;;;;;;;;5011292;28;20034;-74
2023/03/13 00:35:08;;;;;;;0.25;0.25;;;;;;;;;;5009458;28;20025;-74
2023/03/13 00:37:35;;;;;;;0.10;0.10;;;;;;;;;;5011852;28;20475;-73
2023/03/13 00:40:03;;;;;;;0.20;0.20;;;;;;;;;;5012072;28;20028;-73
2023/03/13 00:42:29;;;;;;;10.13;3.92;;;;;;;;;;5011948;28;20022;-73
2023/03/13 00:44:55;;;;;;;0.20;0.20;;;;;;;;;;5012036;28;20018;-75
2023/03/13 00:47:21;;;;;;;2.10;1.17;;;;;;;;;;5011824;28;20037;-74
2023/03/13 00:49:47;;;;;;;0.20;0.20;;;;;;;;;;5009150;28;20020;-74
2023/03/13 00:52:13;;;;;;;0.57;0.57;;;;;;;;;;5011629;28;20064;-74
2023/03/13 00:54:40;;;;;;;0.20;0.20;;;;;;;;;;5011584;28;20567;-73
2023/03/13 00:57:06;;;;;;;0.30;0.30;;;;;;;;;;5011918;28;20034;-75
2023/03/13 00:59:32;;;;;;;0.22;0.22;;;;;;;;;;5010600;28;20058;-74
2023/03/13 01:01:58;;;;;;;0.10;0.10;;;;;;;;;;5011847;28;20479;-75
2023/03/13 01:04:24;;;;;;;1.70;1.38;;;;;;;;;;5011904;28;20104;-75
2023/03/13 01:06:50;;;;;;;0.20;0.20;;;;;;;;;;5009610;28;20030;-76
2023/03/13 01:09:16;;;;;;;0.20;0.20;;;;;;;;;;5011568;28;20088;-77
2023/03/13 01:11:43;;;;;;;0.20;0.20;;;;;;;;;;5011463;28;20495;-75
2023/03/13 01:14:11;;;;;;;0.20;0.20;;;;;;;;;;5011520;28;20034;-74
2023/03/13 01:16:37;;;;;;;0.38;0.38;;;;;;;;;;5011541;28;20029;-76
2023/03/13 01:19:05;;;;;;;0.40;0.40;;;;;;;;;;5011485;28;20056;-76
2023/03/13 01:21:31;;;;;;;8.30;1.45;;;;;;;;;;5011166;28;20046;-76
2023/03/13 01:23:57;;;;;;;16.40;4.28;;;;;;;;;;5008936;28;20459;-78
2023/03/13 01:26:24;;;;;;;4.78;2.60;;;;;;;;;;5011483;28;20407;-76
2023/03/13 01:28:50;;;;;;;1.67;0.98;;;;;;;;;;5011725;28;20030;-77
2023/03/13 01:31:23;;;;;;;0.68;0.68;;;;;;;;;;5012043;28;20026;-78
2023/03/13 01:33:51;;;;;;;0.35;0.35;;;;;;;;;;5012335;28;20057;-77
2023/03/13 01:36:17;;;;;;;0.45;0.45;;;;;;;;;;5011738;28;20401;-78
2023/03/13 01:38:47;;;;;;;0.20;0.20;;;;;;;;;;5011335;28;20390;-77
2023/03/13 01:41:13;;;;;;;0.10;0.10;;;;;;;;;;5009646;28;20018;-78
2023/03/13 01:43:39;;;;;;;0.20;0.20;;;;;;;;;;4994539;28;20037;-78
2023/03/13 01:46:08;;;;;;;0.20;0.20;;;;;;;;;;4991779;28;20023;-78
2023/03/13 01:48:43;;;;;;;1.20;1.20;;;;;;;;;;4991539;28;20049;-78
2023/03/13 01:51:12;;;;;;;0.20;0.20;;;;;;;;;;4991559;28;20030;-77
2023/03/13 01:53:41;;;;;;;0.20;0.20;;;;;;;;;;4991471;28;20523;-77
2023/03/13 01:56:09;;;;;;;0.20;0.20;;;;;;;;;;4991144;28;20533;-77
2023/03/13 01:58:37;;;;;;;0.10;0.10;;;;;;;;;;5004286;28;20613;-75
2023/03/13 02:01:03;;;;;;;0.20;0.20;;;;;;;;;;4991538;28;20031;-78
2023/03/13 02:03:29;;;;;;;0.10;0.10;;;;;;;;;;4991569;28;20026;-77
2023/03/13 02:05:56;;;;;;;8.77;4.22;;;;;;;;;;5006454;28;20431;-74
2023/03/13 02:08:29;;;;;;;0.20;0.20;;;;;;;;;;4991110;28;20126;-72
2023/03/13 02:11:04;;;;;;;0.20;0.20;;;;;;;;;;4991256;28;20023;-71
2023/03/13 02:13:30;;;;;;;0.60;0.60;;;;;;;;;;4991303;28;20026;-70
2023/03/13 02:15:56;;;;;;;0.30;0.30;;;;;;;;;;5002325;28;20040;-71
2023/03/13 02:18:24;;;;;;;0.30;0.30;;;;;;;;;;5014477;28;20521;-72
2023/03/13 02:20:52;;;;;;;0.40;0.40;;;;;;;;;;5014183;28;20537;-72
2023/03/13 02:23:21;;;;;;;0.68;0.68;;;;;;;;;;5014530;28;20030;-72
2023/03/13 02:25:48;;;;;;;1.95;1.25;;;;;;;;;;5014185;28;20133;-74
2023/03/13 02:28:23;;;;;;;0.20;0.20;;;;;;;;;;5013087;28;20033;-74
2023/03/13 02:30:51;;;;;;;0.20;0.20;;;;;;;;;;5014508;28;20431;-75
2023/03/13 02:33:18;;;;;;;0.20;0.20;;;;;;;;;;5043524;28;20341;-75
2023/03/13 02:35:45;;;;;;;0.30;0.30;;;;;;;;;;5014155;28;20036;-73
2023/03/13 02:38:13;;;;;;;0.20;0.20;;;;;;;;;;5014216;28;20051;-75
2023/03/13 02:40:41;;;;;;;0.20;0.20;;;;;;;;;;5014152;28;20108;-76
2023/03/13 02:43:10;;;;;;;0.20;0.20;;;;;;;;;;5014374;28;20087;-76
2023/03/13 02:45:36;;;;;;;0.20;0.20;;;;;;;;;;5014118;28;20050;-75
2023/03/13 02:48:03;;;;;;;0.30;0.30;;;;;;;;;;5011490;28;20042;-77
2023/03/13 02:50:29;;;;;;;0.57;0.57;;;;;;;;;;5013669;28;20076;-77
2023/03/13 02:52:58;;;;;;;0.20;0.20;;;;;;;;;;5014029;28;20128;-76
2023/03/13 02:55:27;;;;;;;0.20;0.20;;;;;;;;;;5013809;28;20113;-74
2023/03/13 02:57:53;;;;;;;0.20;0.20;;;;;;;;;;5013717;28;20113;-75
2023/03/13 03:00:25;;;;;;;2.60;2.40;;;;;;;;;;5013949;28;20080;-77
2023/03/13 03:02:51;;;;;;;0.20;0.20;;;;;;;;;;5013739;28;20440;-77
2023/03/13 03:05:17;;;;;;;0.20;0.20;;;;;;;;;;5011718;28;20026;-76
2023/03/13 03:07:43;;;;;;;0.30;0.30;;;;;;;;;;5012144;28;20490;-74
2023/03/13 03:10:09;;;;;;;0.20;0.20;;;;;;;;;;5013730;28;20120;-68
2023/03/13 03:12:35;;;;;;;0.30;0.30;;;;;;;;;;5013533;28;20073;-68
2023/03/13 03:15:03;;;;;;;0.28;0.28;;;;;;;;;;5013371;28;20120;-68
2023/03/13 03:17:29;;;;;;;0.20;0.20;;;;;;;;;;5013332;28;20092;-67
2023/03/13 03:19:56;;;;;;;1.05;1.05;;;;;;;;;;5013553;28;20026;-68
2023/03/13 03:22:22;;;;;;;0.30;0.30;;;;;;;;;;5010912;28;20405;-68
2023/03/13 03:24:48;;;;;;;0.20;0.20;;;;;;;;;;5013196;28;20554;-69
2023/03/13 03:27:14;;;;;;;0.20;0.20;;;;;;;;;;5013064;28;20391;-70
2023/03/13 03:29:40;;;;;;;0.93;0.93;;;;;;;;;;5013406;28;20055;-70
2023/03/13 03:32:06;;;;;;;0.20;0.20;;;;;;;;;;5013378;28;20022;-71
2023/03/13 03:34:32;;;;;;;0.28;0.28;;;;;;;;;;5012876;28;20136;-71
2023/03/13 03:36:59;;;;;;;0.20;0.20;;;;;;;;;;5013093;28;20121;-70
2023/03/13 03:39:25;;;;;;;0.20;0.20;;;;;;;;;;5011254;28;20034;-70
2023/03/13 03:41:51;;;;;;;0.20;0.20;;;;;;;;;;5012961;28;20037;-70
2023/03/13 03:44:17;;;;;;;0.20;0.20;;;;;;;;;;5013007;28;20076;-71
2023/03/13 03:46:43;;;;;;;0.10;0.10;;;;;;;;;;5012755;28;20057;-69
2023/03/13 03:49:09;;;;;;;0.22;0.22;;;;;;;;;;5012524;28;20037;-71
2023/03/13 03:51:35;;;;;;;2.35;1.80;;;;;;;;;;5011467;28;20022;-71
2023/03/13 03:54:01;;;;;;;0.30;0.30;;;;;;;;;;5012700;28;20119;-71
2023/03/13 03:56:27;;;;;;;0.52;0.52;;;;;;;;;;5010407;28;20040;-73
2023/03/13 03:58:53;;;;;;;2.05;1.95;;;;;;;;;;5012401;28;20491;-71
2023/03/13 04:01:19;;;;;;;0.63;0.63;;;;;;;;;;5012551;28;20402;-72
2023/03/13 04:03:47;;;;;;;0.20;0.20;;;;;;;;;;5012507;28;20431;-72
2023/03/13 04:06:13;;;;;;;3.90;1.73;;;;;;;;;;5012477;28;20501;-72
2023/03/13 04:08:39;;;;;;;0.20;0.20;;;;;;;;;;5012408;28;20390;-72
2023/03/13 04:11:05;;;;;;;0.45;0.45;;;;;;;;;;5012579;28;20394;-71
2023/03/13 04:13:31;;;;;;;0.30;0.30;;;;;;;;;;5012306;28;20073;-72
2023/03/13 04:15:57;;;;;;;0.40;0.40;;;;;;;;;;5010274;28;20025;-72
2023/03/13 04:18:24;;;;;;;0.20;0.20;;;;;;;;;;5012284;28;20118;-72
2023/03/13 04:20:50;;;;;;;0.20;0.20;;;;;;;;;;5012020;28;20021;-72
2023/03/13 04:23:16;;;;;;;0.20;0.20;;;;;;;;;;5012192;28;20502;-72
2023/03/13 04:25:42;;;;;;;0.20;0.20;;;;;;;;;;5012045;28;20471;-72
2023/03/13 04:28:08;;;;;;;0.20;0.20;;;;;;;;;;5012105;28;20037;-75
2023/03/13 04:30:34;;;;;;;0.20;0.20;;;;;;;;;;5011023;28;20026;-73
2023/03/13 04:33:00;;;;;;;0.20;0.20;;;;;;;;;;5008123;28;20033;-71
2023/03/13 04:35:26;;;;;;;2.05;1.88;;;;;;;;;;5011894;28;20022;-73
2023/03/13 04:37:52;;;;;;;0.20;0.20;;;;;;;;;;5011729;28;20371;-73
2023/03/13 04:40:18;;;;;;;0.63;0.63;;;;;;;;;;5010157;28;20525;-72
2023/03/13 04:42:45;;;;;;;0.20;0.20;;;;;;;;;;5011960;28;20474;-73
2023/03/13 04:45:12;;;;;;;4.35;0.90;;;;;;;;;;5010284;28;20032;-72
2023/03/13 04:47:38;;;;;;;0.25;0.25;;;;;;;;;;5011770;28;20479;-72
2023/03/13 04:50:04;;;;;;;0.20;0.20;;;;;;;;;;5010254;28;20038;-72
2023/03/13 04:52:30;;;;;;;0.32;0.32;;;;;;;;;;5011845;28;20022;-71
2023/03/13 04:54:56;;;;;;;0.20;0.20;;;;;;;;;;5011551;28;20084;-72
2023/03/13 04:57:22;;;;;;;0.10;0.10;;;;;;;;;;5011551;28;20034;-71
2023/03/13 04:59:48;;;;;;;0.20;0.20;;;;;;;;;;5011803;28;20060;-71
2023/03/13 05:02:14;;;;;;;1.27;1.27;;;;;;;;;;5011908;28;20105;-72
2023/03/13 05:04:41;;;;;;;0.20;0.20;;;;;;;;;;5043082;28;20025;-71
2023/03/13 05:07:07;;;;;;;0.20;0.20;;;;;;;;;;5009063;28;20073;-70
2023/03/13 05:09:33;;;;;;;0.20;0.20;;;;;;;;;;5011664;28;20489;-70
2023/03/13 05:11:59;;;;;;;0.13;0.13;;;;;;;;;;5011903;28;20056;-70
2023/03/13 05:14:25;;;;;;;0.50;0.50;;;;;;;;;;5011700;28;20025;-70
2023/03/13 05:16:51;;;;;;;0.20;0.20;;;;;;;;;;5011602;28;20404;-70
2023/03/13 05:19:17;;;;;;;1.58;1.48;;;;;;;;;;5011763;28;20076;-71
2023/03/13 05:21:43;;;;;;;0.88;0.77;;;;;;;;;;5011700;28;20050;-71
2023/03/13 05:24:09;;;;;;;2.63;1.35;;;;;;;;;;5010089;28;20518;-70
2023/03/13 05:26:35;;;;;;;0.25;0.25;;;;;;;;;;5011263;28;20058;-72
2023/03/13 05:29:01;;;;;;;0.10;0.10;;;;;;;;;;5011340;28;20030;-72
2023/03/13 05:31:27;;;;;;;5.57;3.95;;;;;;;;;;5011201;28;20057;-74
2023/03/13 05:33:53;;;;;;;0.20;0.20;;;;;;;;;;5011200;28;20487;-73
2023/03/13 05:36:19;;;;;;;0.20;0.20;;;;;;;;;;5011229;28;20022;-71
2023/03/13 05:38:45;;;;;;;0.30;0.30;;;;;;;;;;5010991;28;20060;-72
2023/03/13 05:41:12;;;;;;;0.20;0.20;;;;;;;;;;5011261;28;20168;-73
2023/03/13 05:43:38;;;;;;;0.20;0.20;;;;;;;;;;5011213;28;20022;-73
2023/03/13 05:46:04;;;;;;;0.20;0.20;;;;;;;;;;5010970;28;20029;-72
2023/03/13 05:48:30;;;;;;;0.20;0.20;;;;;;;;;;5008774;28;20114;-71
2023/03/13 05:50:56;;;;;;;1.85;0.77;;;;;;;;;;5013942;28;20033;-72
2023/03/13 05:53:22;;;;;;;0.25;0.25;;;;;;;;;;5015252;28;20033;-71
2023/03/13 05:55:48;;;;;;;0.20;0.20;;;;;;;;;;5014987;28;20105;-73
2023/03/13 05:58:15;;;;;;;0.20;0.20;;;;;;;;;;5015049;28;20045;-73
2023/03/13 06:00:42;;;;;;;0.28;0.28;;;;;;;;;;5015233;28;20060;-72
2023/03/13 06:03:08;;;;;;;1.27;1.27;;;;;;;;;;5015045;28;20022;-72
2023/03/13 06:05:34;;;;;;;0.20;0.20;;;;;;;;;;5013481;28;20037;-69
2023/03/13 06:08:01;;;;;;;0.32;0.32;;;;;;;;;;4994599;28;20039;-71
2023/03/13 06:10:28;;;;;;;6.00;0.55;;;;;;;;;;4995055;28;20036;-72
2023/03/13 06:12:54;;;;;;;3.10;2.67;;;;;;;;;;4995158;28;20030;-71
2023/03/13 06:15:21;;;;;;;0.20;0.20;;;;;;;;;;4995250;28;20027;-71
2023/03/13 06:17:47;;;;;;;0.20;0.20;;;;;;;;;;4995073;28;20030;-72
2023/03/13 06:20:13;;;;;;;0.20;0.20;;;;;;;;;;4995240;28;20033;-71
2023/03/13 06:22:40;;;;;;;0.20;0.20;;;;;;;;;;4995870;28;20052;-71
2023/03/13 06:25:06;;;;;;;0.30;0.30;;;;;;;;;;5014120;28;20058;-71
2023/03/13 06:27:32;;;;;;;0.20;0.20;;;;;;;;;;5014553;28;20121;-71
2023/03/13 06:29:58;;;;;;;0.20;0.20;;;;;;;;;;5014131;28;20406;-72
2023/03/13 06:32:24;;;;;;;0.20;0.20;;;;;;;;;;5012950;28;20071;-72
2023/03/13 06:34:51;;;;;;;0.52;0.52;;;;;;;;;;5014449;28;20495;-73
2023/03/13 06:37:17;;;;;;;1.65;1.42;;;;;;;;;;5014446;28;20061;-73
2023/03/13 06:39:43;;;;;;;0.20;0.20;;;;;;;;;;5010474;28;20059;-72
2023/03/13 06:42:09;;;;;;;0.20;0.20;;;;;;;;;;5002139;28;20514;-73
2023/03/13 06:44:36;;;;;;;0.20;0.20;;;;;;;;;;4994635;28;20030;-75
2023/03/13 06:47:02;;;;;;;0.20;0.20;;;;;;;;;;4994748;28;20026;-75
2023/03/13 06:49:28;;;;;;;0.43;0.43;;;;;;;;;;5011397;28;20030;-75
2023/03/13 06:51:57;;;;;;;0.20;0.20;;;;;;;;;;5012758;28;20133;-77
2023/03/13 06:54:23;;;;;;;0.70;0.70;;;;;;;;;;5013233;28;20030;-78
2023/03/13 06:56:49;;;;;;;0.20;0.20;;;;;;;;;;5010700;28;20030;-80
2023/03/13 06:59:15;;;;;;;0.20;0.20;;;;;;;;;;5013998;28;20072;-82
2023/03/13 07:01:41;;;;;;;0.55;0.55;;;;;;;;;;5007240;28;20034;-81
2023/03/13 07:04:09;;;;;;;0.20;0.20;;;;;;;;;;5013822;28;20052;-82
2023/03/13 07:06:35;;;;;;;1.88;1.85;;;;;;;;;;5011421;28;20056;-80
2023/03/13 07:09:01;;;;;;;0.20;0.20;;;;;;;;;;5014097;28;20034;-80
2023/03/13 07:11:27;;;;;;;0.35;0.35;;;;;;;;;;5013319;28;20056;-80
2023/03/13 07:13:56;;;;;;;0.30;0.30;;;;;;;;;;5011499;28;20038;-81
2023/03/13 07:16:22;;;;;;;0.20;0.20;;;;;;;;;;5012444;28;20112;-80
2023/03/13 07:18:48;;;;;;;2.05;1.10;;;;;;;;;;5013261;28;20022;-82
2023/03/13 07:21:14;;;;;;;0.20;0.20;;;;;;;;;;5013344;28;20049;-81
2023/03/13 07:23:41;;;;;;;0.30;0.30;;;;;;;;;;5012624;28;20025;-83
2023/03/13 07:26:08;;;;;;;0.20;0.20;;;;;;;;;;5013831;28;20033;-83
2023/03/13 07:28:34;;;;;;;0.20;0.20;;;;;;;;;;5012994;28;20034;-84
2023/03/13 07:31:20;;;;;;;0.20;0.20;;;;;;;;;;5006193;28;20026;-84
2023/03/13 07:33:46;;;;;;;0.15;0.15;;;;;;;;;;5014641;28;20502;-85
2023/03/13 07:36:13;;;;;;;0.20;0.20;;;;;;;;;;5013650;28;20064;-85
2023/03/13 07:38:39;;;;;;;0.98;0.98;;;;;;;;;;5013488;28;20025;-85
2023/03/13 07:41:05;;;;;;;0.20;0.20;;;;;;;;;;5014023;28;20493;-84
2023/03/13 07:43:31;;;;;;;0.20;0.20;;;;;;;;;;5013242;28;20104;-82
2023/03/13 07:46:04;;;;;;;1.98;1.88;;;;;;;;;;5015143;28;20088;-83
2023/03/13 07:48:37;;;;;;;19.35;0.93;;;;;;;;;;5019124;28;20030;-80
2023/03/13 07:51:07;;;;;;;0.20;0.20;;;;;;;;;;5012427;28;20592;-79
2023/03/13 07:53:34;;;;;;;0.30;0.30;;;;;;;;;;5012157;28;20052;-80
2023/03/13 07:56:01;;;;;;;1.15;1.15;;;;;;;;;;5010976;28;20029;-81
2023/03/13 07:58:29;;;;;;;0.30;0.30;;;;;;;;;;5012330;28;20033;-83
2023/03/13 08:00:55;;;;;;;0.20;0.20;;;;;;;;;;5011638;28;20037;-84
2023/03/13 08:03:22;;;;;;;0.20;0.20;;;;;;;;;;4999698;28;20439;-87
2023/03/13 08:05:48;;;;;;;0.10;0.10;;;;;;;;;;4995116;28;20046;-79
2023/03/13 08:08:14;;;;;;;0.73;0.73;;;;;;;;;;5011443;28;20042;-81
2023/03/13 08:10:40;;;;;;;0.20;0.20;;;;;;;;;;5012733;28;20060;-80
2023/03/13 08:13:06;;;;;;;4.35;1.95;;;;;;;;;;5007436;28;20033;-80
2023/03/13 08:15:32;;;;;;;0.20;0.20;;;;;;;;;;5003531;28;20157;-80
2023/03/13 08:17:58;;;;;;;0.20;0.20;;;;;;;;;;5011897;28;20290;-82
2023/03/13 08:20:24;;;;;;;0.20;0.20;;;;;;;;;;5012839;28;20021;-82
2023/03/13 08:22:50;;;;;;;0.20;0.20;;;;;;;;;;5010445;28;20491;-81
2023/03/13 08:25:16;;;;;;;4.47;1.85;;;;;;;;;;5012218;28;20045;-82
2023/03/13 08:27:42;;;;;;;2.10;1.95;;;;;;;;;;5012683;28;20398;-84
2023/03/13 08:30:09;;;;;;;0.20;0.20;;;;;;;;;;5013272;28;20022;-84
2023/03/13 08:32:36;;;;;;;0.20;0.20;;;;;;;;;;5013115;28;20497;-83
2023/03/13 08:35:03;;;;;;;1.65;1.55;;;;;;;;;;5013521;28;20123;-83
2023/03/13 08:37:29;;;;;;;1.40;1.30;;;;;;;;;;5013524;28;20048;-82
2023/03/13 08:39:55;;;;;;;0.20;0.20;;;;;;;;;;5013071;28;20083;-82
2023/03/13 08:42:22;;;;;;;3.10;1.65;;;;;;;;;;5012760;28;20379;-85
2023/03/13 08:44:48;;;;;;;9.52;1.00;;;;;;;;;;5012662;28;20022;-82
2023/03/13 08:47:16;;;;;;;0.40;0.40;;;;;;;;;;5012536;28;20026;-81
2023/03/13 08:49:42;;;;;;;0.57;0.57;;;;;;;;;;5011506;28;20322;-81
2023/03/13 08:52:09;;;;;;;0.20;0.20;;;;;;;;;;5011134;28;20022;-80
2023/03/13 08:54:35;;;;;;;0.80;0.80;;;;;;;;;;5012156;28;20366;-78
2023/03/13 08:57:01;;;;;;;3.85;2.42;;;;;;;;;;5012657;28;20104;-81
2023/03/13 08:59:27;;;;;;;1.95;1.02;;;;;;;;;;5013815;28;20014;-86
2023/03/13 09:01:53;;;;;;;0.20;0.20;;;;;;;;;;5014728;28;20112;-86
2023/03/13 09:04:19;;;;;;;0.20;0.20;;;;;;;;;;5013129;28;20026;-84
2023/03/13 09:06:45;;;;;;;0.20;0.20;;;;;;;;;;5011756;28;20034;-81
2023/03/13 09:09:13;;;;;;;0.20;0.20;;;;;;;;;;5012125;28;20029;-80
2023/03/13 09:11:39;;;;;;;0.20;0.20;;;;;;;;;;5010283;28;20026;-80
2023/03/13 09:14:06;;;;;;;0.60;0.60;;;;;;;;;;5010225;28;20034;-80
2023/03/13 09:16:33;;;;;;;1.73;1.25;;;;;;;;;;5012130;28;20026;-81
2023/03/13 09:19:00;;;;;;;0.30;0.30;;;;;;;;;;5014624;28;20025;-82
2023/03/13 09:21:28;;;;;;;6.22;2.05;;;;;;;;;;5015605;28;20050;-82
2023/03/13 09:23:54;;;;;;;1.55;1.10;;;;;;;;;;5029327;28;20030;-84
2023/03/13 09:26:20;;;;;;;0.20;0.20;;;;;;;;;;5035614;28;20018;-81
2023/03/13 09:28:46;;;;;;;8.20;4.57;;;;;;;;;;5034499;28;20399;-85
2023/03/13 09:31:14;;;;;;;1.35;1.17;;;;;;;;;;5035082;28;20204;-86
2023/03/13 09:33:41;;;;;;;0.20;0.20;;;;;;;;;;5035010;28;20110;-86
2023/03/13 09:36:07;;;;;;;4.95;0.75;;;;;;;;;;5032777;28;20033;-83
2023/03/13 09:38:34;;;;;;;0.50;0.50;;;;;;;;;;5030821;28;20097;-86
2023/03/13 09:41:21;;;;;;;1.58;1.50;;;;;;;;;;5018573;28;20053;-84
2023/03/13 09:44:26;;;;;;;0.30;0.30;;;;;;;;;;5015831;28;20056;-84
2023/03/13 09:47:01;;;;;;;1.10;1.10;;;;;;;;;;4982330;28;20042;-83
2023/03/13 09:49:50;;;;;;;0.30;0.30;;;;;;;;;;4988574;28;20031;-82
2023/03/13 09:52:22;;;;;;;0.40;0.40;;;;;;;;;;5013008;28;20034;-81
2023/03/13 09:54:51;;;;;;;0.22;0.22;;;;;;;;;;5016430;28;20044;-83
2023/03/13 09:57:17;;;;;;;1.20;1.20;;;;;;;;;;5012198;28;20040;-82
2023/03/13 09:59:46;;;;;;;0.35;0.35;;;;;;;;;;5013475;28;20037;-86
2023/03/13 10:02:28;;;;;;;0.30;0.30;;;;;;;;;;5022714;28;20026;-90
2023/03/13 10:05:01;;;;;;;0.20;0.20;;;;;;;;;;5018431;28;20027;-86
2023/03/13 10:07:28;;;;;;;0.95;0.95;;;;;;;;;;5010292;28;20032;-83
2023/03/13 10:09:54;;;;;;;0.30;0.30;;;;;;;;;;5010914;28;20052;-83
2023/03/13 10:12:27;;;;;;;0.20;0.20;;;;;;;;;;5012577;28;20026;-84
2023/03/13 10:14:59;;;;;;;0.38;0.38;;;;;;;;;;5013981;28;20048;-85
2023/03/13 10:17:25;;;;;;;;;;;;;;;;;;5014767;28;20025;-85
2023/03/13 10:19:56;;;;;;;0.20;0.20;;;;;;;;;;5011174;28;19909;-85
2023/03/13 10:22:25;;;;;;;0.50;0.50;;;;;;;;;;5013191;28;20050;-87
2023/03/13 10:24:54;;;;;;;2.55;0.90;;;;;;;;;;5001128;28;20030;-88
2023/03/13 10:27:20;;;;;;;0.47;0.47;;;;;;;;;;4997381;28;20627;-87
2023/03/13 10:29:47;;;;;;;0.20;0.20;;;;;;;;;;4995567;28;20125;-89
2023/03/13 10:32:14;;;;;;;0.20;0.20;;;;;;;;;;5013889;28;20029;-89
2023/03/13 10:34:59;;;;;;;6.80;1.95;;;;;;;;;;5015657;28;20030;-89
2023/03/13 10:37:27;;;;;;;0.40;0.40;;;;;;;;;;5017877;28;20076;-90
2023/03/13 10:39:54;;;;;;;0.75;0.75;;;;;;;;;;5015659;28;20117;-87
2023/03/13 10:42:23;;;;;;;1.90;0.93;;;;;;;;;;4997679;28;20499;-86
2023/03/13 10:44:49;;;;;;;36.25;2.65;;;;;;;;;;5011349;28;20470;-88
2023/03/13 10:47:15;;;;;;;0.20;0.20;;;;;;;;;;5014033;28;20042;-86
2023/03/13 10:49:49;;;;;;;4.82;2.88;;;;;;;;;;5012954;28;20085;-87
2023/03/13 10:52:28;;;;;;;1.67;1.58;;;;;;;;;;4994165;28;20513;-87
2023/03/13 10:54:59;;;;;;;0.30;0.30;;;;;;;;;;4995836;28;20034;-84
2023/03/13 10:57:25;;;;;;;0.20;0.20;;;;;;;;;;4997027;28;20382;-86
2023/03/13 10:59:52;;;;;;;0.20;0.20;;;;;;;;;;4996685;28;20023;-86
2023/03/13 11:02:18;;;;;;;0.40;0.40;;;;;;;;;;4998362;28;20038;-87
2023/03/13 11:04:48;;;;;;;3.33;3.13;;;;;;;;;;4997089;28;20026;-89
2023/03/13 11:07:20;;;;;;;1.85;1.17;;;;;;;;;;4995170;28;20050;-83
2023/03/13 11:10:12;;;;;;;1.55;1.08;;;;;;;;;;5006531;28;20030;-83
2023/03/13 11:12:44;;;;;;;0.50;0.50;;;;;;;;;;5002602;28;20085;-84
2023/03/13 11:15:20;;;;;;;0.30;0.30;;;;;;;;;;5005199;28;20034;-85
2023/03/13 11:17:49;;;;;;;0.68;0.68;;;;;;;;;;5011574;28;20031;-86
2023/03/13 11:20:16;;;;;;;0.15;0.15;;;;;;;;;;5014863;28;20168;-85
2023/03/13 11:22:48;;;;;;;2.92;2.75;;;;;;;;;;5013141;28;20049;-85
2023/03/13 11:25:22;;;;;;;4.60;2.20;;;;;;;;;;5015154;28;20065;-87
2023/03/13 11:28:04;;;;;;;0.85;0.75;;;;;;;;;;5015180;28;20061;-88
2023/03/13 11:30:33;;;;;;;2.17;1.17;;;;;;;;;;5014622;28;20038;-87
2023/03/13 11:33:09;;;;;;;0.20;0.20;;;;;;;;;;5026245;28;20578;-87
2023/03/13 11:35:39;;;;;;;14.00;1.13;;;;;;;;;;5002800;28;20030;-87
2023/03/13 11:38:28;;;;;;;1.58;1.48;;;;;;;;;;5013962;28;20045;-86
2023/03/13 11:40:57;;;;;;;0.40;0.40;;;;;;;;;;4986650;28;20140;-85
2023/03/13 11:43:30;;;;;;;5.75;2.15;;;;;;;;;;5018714;28;20414;-84
2023/03/13 11:46:14;;;;;;;0.20;0.20;;;;;;;;;;5013750;28;20022;-84
2023/03/13 11:48:59;;;;;;;0.20;0.20;;;;;;;;;;5009164;28;20034;-82
2023/03/13 11:51:48;;;;;;;0.20;0.20;;;;;;;;;;4994116;28;20075;-83
2023/03/13 11:54:14;;;;;;;0.30;0.30;;;;;;;;;;4996038;28;20058;-82
2023/03/13 11:56:40;;;;;;;0.57;0.57;;;;;;;;;;5024619;28;20026;-85
2023/03/13 11:59:21;;;;;;;0.20;0.20;;;;;;;;;;5015551;28;20238;-86
2023/03/13 12:01:52;;;;;;;0.47;0.47;;;;;;;;;;5014037;28;20030;-88
2023/03/13 12:04:44;;;;;;;0.20;0.20;;;;;;;;;;5015383;28;20499;-87
2023/03/13 12:07:13;;;;;;;0.52;0.43;;;;;;;;;;5004138;28;20069;-84
2023/03/13 12:09:42;;;;;;;4.28;3.40;;;;;;;;;;5012854;28;20383;-81
2023/03/13 12:12:16;;;;;;;4.57;2.72;;;;;;;;;;5012944;28;20025;-80
2023/03/13 12:14:52;;;;;;;5.10;1.65;;;;;;;;;;5012277;28;20049;-82
2023/03/13 12:17:28;;;;;;;1.55;1.33;;;;;;;;;;5012344;28;20022;-84
2023/03/13 12:20:13;;;;;;;2.35;2.25;;;;;;;;;;5014060;28;20042;-82
2023/03/13 12:22:45;;;;;;;1.20;1.00;;;;;;;;;;4996124;28;20081;-82
2023/03/13 12:25:25;;;;;;;0.20;0.20;;;;;;;;;;5013064;28;20018;-83
2023/03/13 12:27:53;;;;;;;0.40;0.40;;;;;;;;;;5012711;28;20067;-84
2023/03/13 12:30:19;;;;;;;0.68;0.68;;;;;;;;;;5013072;28;20037;-84
2023/03/13 12:32:45;;;;;;;0.20;0.20;;;;;;;;;;5004349;28;20522;-86
2023/03/13 12:35:19;;;;;;;0.20;0.20;;;;;;;;;;5013722;28;20045;-85
2023/03/13 12:37:51;;;;;;;0.35;0.35;;;;;;;;;;4999783;28;20019;-85
2023/03/13 12:40:23;;;;;;;0.22;0.22;;;;;;;;;;5005734;28;20249;-82
2023/03/13 12:42:49;;;;;;;0.30;0.30;;;;;;;;;;5012589;28;20025;-82
2023/03/13 12:45:23;;;;;;;7.60;3.88;;;;;;;;;;5012842;28;20022;-83
2023/03/13 12:48:07;;;;;;;1.90;1.80;;;;;;;;;;5012212;28;20030;-80
2023/03/13 12:50:34;;;;;;;0.20;0.20;;;;;;;;;;5012035;28;20692;-78
2023/03/13 12:53:15;;;;;;;0.20;0.20;;;;;;;;;;5011443;28;20018;-81
2023/03/13 12:55:59;;;;;;;38.88;5.70;;;;;;;;;;5007494;28;20057;-76
2023/03/13 12:58:29;;;;;;;47.33;6.60;;;;;;;;;;5013512;28;20044;-85
2023/03/13 13:00:56;;;;;;;49.25;6.40;;;;;;;;;;5010242;28;20430;-85
2023/03/13 13:03:39;;;;;;;34.67;5.15;;;;;;;;;;5014139;28;20018;-84
2023/03/13 13:06:10;;;;;;;44.67;7.28;;;;;;;;;;5003604;28;20486;-82
2023/03/13 13:08:42;;;;;;;29.95;5.82;;;;;;;;;;5009223;28;20568;-84
2023/03/13 13:11:26;;;;;;;30.05;5.45;;;;;;;;;;5010663;28;20038;-83
2023/03/13 13:13:52;;;;;;;37.28;4.85;;;;;;;;;;5017920;28;20034;-85
2023/03/13 13:16:21;;;;;;;26.77;5.30;;;;;;;;;;5022989;28;20105;-83
2023/03/13 13:18:47;;;;;;;37.60;6.35;;;;;;;;;;5025542;28;20025;-85
2023/03/13 13:21:17;;;;;;;37.08;7.60;;;;;;;;;;5038665;28;20062;-82
2023/03/13 13:23:47;;;;;;;32.55;5.72;;;;;;;;;;5038464;28;20022;-77
2023/03/13 13:26:25;;;;;;;46.80;7.13;;;;;;;;;;5031641;28;20038;-83
2023/03/13 13:28:52;;;;;;;24.60;4.40;;;;;;;;;;5026219;28;20022;-82
2023/03/13 13:31:37;;;;;;;41.50;7.35;;;;;;;;;;5033341;28;20022;-80
2023/03/13 13:34:03;;;;;;;40.10;6.68;;;;;;;;;;5030031;28;20041;-87
2023/03/13 13:36:29;;;;;;;33.40;6.43;;;;;;;;;;5020408;28;20078;-81
2023/03/13 13:38:56;;;;;;;40.80;5.47;;;;;;;;;;5011749;28;20026;-86
2023/03/13 13:41:24;;;;;;;41.10;6.43;;;;;;;;;;5013826;28;20033;-86
2023/03/13 13:44:10;;;;;;;30.50;5.28;;;;;;;;;;5010772;28;20030;-78
2023/03/13 13:46:44;;;;;;;40.47;5.85;;;;;;;;;;5011705;28;20458;-78
2023/03/13 13:49:20;;;;;;;32.70;5.38;;;;;;;;;;5012965;28;20550;-78
2023/03/13 13:52:01;;;;;;;34.92;6.80;;;;;;;;;;5013303;28;20018;-85
2023/03/13 13:54:30;;;;;;;40.80;7.13;;;;;;;;;;5012908;28;20026;-79
2023/03/13 13:57:16;;;;;;;48.15;7.57;;;;;;;;;;5012211;28;20105;-78
2023/03/13 13:59:43;;;;;;;32.75;6.53;;;;;;;;;;5007490;28;20075;-78
2023/03/13 14:02:09;;;;;;;36.28;6.30;;;;;;;;;;5011111;28;20018;-78
2023/03/13 14:04:38;;;;;;;24.10;5.55;;;;;;;;;;5012174;28;20037;-80
2023/03/13 14:07:05;;;;;;;37.92;5.97;;;;;;;;;;5011267;28;20026;-79
2023/03/13 14:09:34;;;;;;;41.85;5.20;;;;;;;;;;5011651;28;20029;-79
2023/03/13 14:12:00;;;;;;;38.90;5.07;;;;;;;;;;5012358;28;20467;-81
2023/03/13 14:14:26;;;;;;;39.25;5.25;;;;;;;;;;5015212;28;20033;-81
2023/03/13 14:16:56;;;;;;;44.60;6.13;;;;;;;;;;5014611;28;20022;-80
2023/03/13 14:19:30;;;;;;;28.92;4.75;;;;;;;;;;5014994;28;20033;-80
2023/03/13 14:21:59;;;;;;;39.17;5.53;;;;;;;;;;5014821;28;20078;-80
2023/03/13 14:24:25;;;;;;;52.00;7.60;;;;;;;;;;5014927;28;20105;-80
2023/03/13 14:26:51;;;;;;;45.83;6.70;;;;;;;;;;5014771;28;20030;-78
2023/03/13 14:29:19;;;;;;;40.92;6.38;;;;;;;;;;5015736;28;20589;-74
2023/03/13 14:31:55;;;;;;;40.17;6.10;;;;;;;;;;5014375;28;20045;-75
2023/03/13 14:34:22;;;;;;;36.75;5.95;;;;;;;;;;5013657;28;20029;-75
2023/03/13 14:36:58;;;;;;;48.40;8.80;;;;;;;;;;5014399;28;20209;-75
2023/03/13 14:39:30;;;;;;;35.95;5.72;;;;;;;;;;5014492;28;20059;-74
2023/03/13 14:42:01;;;;;;;40.85;7.18;;;;;;;;;;5014434;28;20057;-74
2023/03/13 14:44:29;;;;;;;41.63;5.18;;;;;;;;;;5014101;28;20483;-73
2023/03/13 14:46:56;;;;;;;42.00;5.72;;;;;;;;;;5014094;28;20026;-73
2023/03/13 14:49:24;;;;;;;41.85;5.85;;;;;;;;;;5014382;28;20033;-74